Sandstone, Minnesota
Current Conditions -  °F | °C
As of 6:53 PM on Monday 26 Jan 2015 (Local Time) from K04W Reporting Station
Overcast Overcast  
Wind Chill: 27°   Ceiling: 2900
Heat Index: 36°   Visibility: 10mi
Dew Point: 32°   Wind: 14mph
Humidity: 87%   Direction: 340°NNW
Pressure: 29.86"   Gusts: 24mph
Location:  46.13°N, 92.87°W
Report Text: K04W 270053Z AUTO 34012G21KT 10SM SCT023 BKN029 OVC035 02/00 A2986 RMK AO2
Loading
Personal Weather Stations






























Interactive Weather Map New forecast layout! Learn more

10-Day Weather Forecast

Advertisements
Track Severe Weather on mobile